This is the latest recevied weather packets stored in our database for station/object N3FWE. If no packets are shown the sender has not sent any weather packets the latest 1 day(s).
| Time | Temp. | Humidity | Pressure | Rain* | Wind** | Luminosity | Snow |
|---|---|---|---|---|---|---|---|
| 1778066399 | 18.33° C | 71% | 1008.9 hPa | 0 mm | 0.89 m/s, 219° | - | - |
| 1778065799 | 18.89° C | 70% | 1008.8 hPa | 0 mm | 0.89 m/s, 219° | - | - |
| 1778065199 | 18.89° C | 69% | 1008.7 hPa | 0 mm | 0.89 m/s, 293° | - | - |
| 1778064599 | 19.44° C | 68% | 1008.4 hPa | 0 mm | 0.89 m/s, 190° | - | - |
| 1778063998 | 19.44° C | 64% | 1008.4 hPa | 0 mm | 1.34 m/s, 205° | - | - |
| 1778063398 | 19.44° C | 64% | 1008.2 hPa | 0 mm | 0.89 m/s, 203° | - | - |
| 1778062798 | 19.44° C | 64% | 1008.3 hPa | 0 mm | 0.45 m/s, 207° | - | - |
| 1778062197 | 19.44° C | 63% | 1008.2 hPa | 0 mm | 0.89 m/s, 206° | - | - |
| 1778061598 | 19.44° C | 63% | 1008 hPa | 0 mm | 0.89 m/s, 275° | - | - |
| 1778060998 | 19.44° C | 62% | 1008 hPa | 0 mm | 0.45 m/s, 247° | - | - |
| 1778060397 | 20° C | 62% | 1007.9 hPa | 0 mm | 0.45 m/s, 244° | - | - |
| 1778059798 | 20° C | 62% | 1008 hPa | 0 mm | 0.89 m/s, 205° | - | - |
| 1778059197 | 20° C | 62% | 1008.1 hPa | 0 mm | 0.89 m/s, 225° | - | - |
| 1778058598 | 20° C | 61% | 1008.3 hPa | 0 mm | 0.89 m/s, 238° | - | - |
| 1778057998 | 20° C | 61% | 1008.3 hPa | 0 mm | 0.89 m/s, 237° | - | - |
| 1778057397 | 20° C | 61% | 1008.5 hPa | 0 mm | 0.89 m/s, 211° | - | - |
| 1778056798 | 20° C | 61% | 1008.5 hPa | 0 mm | 1.34 m/s, 202° | - | - |
| 1778056197 | 19.44° C | 62% | 1008.6 hPa | 0 mm | 0.89 m/s, 204° | - | - |
| 1778055597 | 18.89° C | 63% | 1008.4 hPa | 0 mm | 0.89 m/s, 207° | - | - |
| 1778054998 | 18.33° C | 65% | 1008.5 hPa | 0 mm | 0.45 m/s, 276° | - | - |
| 1778054398 | 17.22° C | 68% | 1008.6 hPa | 0 mm | 0.45 m/s, 203° | - | - |
| 1778053798 | 16.67° C | 68% | 1008.5 hPa | 0 mm | 0 m/s | - | - |
| 1778053198 | 16.67° C | 68% | 1008.5 hPa | 0 mm | 0 m/s | - | - |
| 1778052598 | 16.67° C | 68% | 1008.6 hPa | 0 mm | 0 m/s | - | - |
| 1778051997 | 16.67° C | 69% | 1008.6 hPa | 0 mm | 0 m/s | - | - |
* Rain latest hour (hover to see other rain measurements)
** Current wind speed in m/s (hover to see current wind gust speed)